Aérodrome :
LOGIN :

S'inscrire | Disclaimer

   EN    FR    IT 

 










Légende :    VFR   VFR Marginal   IFR   IFR Intensif   IFR Très Intensif
Visi : 
Plafond : 
>= 8 km
>= 3000ft
5 à 8 km
1000 à 3000 ft
1500m à 5 km
500 à 1000 ft
800 à 1500m
200 à 500 ft
< 800m
< 200 ft
Symboles :   Orages  Brouillard  Fortes neiges  Fortes précipitations  Vent > 20 kt
SIGMETs :   Divers  Orages  Givrage  Turbulence  Onde Orograph.  Cendres Volcan.






- Altitude de l'aérodrome : 375 ft
- Code IATA : MST


EHBK - Maastricht Aachen

DERNIER METAR :
  • 030555Z AUTO 04003KT 5000 RA BKN000/// OVC001/// 13/13 Q1013 BECMG BKN040 TEMPO 7000 RA SHRA FEW050CB

METARs EXPIRÉS :
  • 030525Z AUTO 25005KT 210V300 6000 RA FEW015CB 13/12 Q1014 REDZRA TEMPO 7000 RA SHRA FEW050CB
  • 030455Z AUTO 25002KT 9999 -DZ NSC 13/12 Q1013 REDZ TEMPO 7000 RA SHRA FEW050CB
  • 030425Z AUTO 11003KT 8000 -RA NSC 13/13 Q1013 TEMPO 7000 RA SHRA FEW050CB
  • 030355Z AUTO VRB02KT 9999 NSC 13/12 Q1013
  • 030325Z AUTO VRB01KT 9999 NSC 13/12 Q1013

TAF TAF EHBK
Valide du 03 à 06h jusqu'au 04 à 12h UTC


030451Z 0306/0412 VRB03KT 9999 OVC045
TEMPO 0306/0313 7000 RA
PROB40
TEMPO 0306/0308 4000 SHRA FEW060CB
PROB30
TEMPO 0313/0318 6000 -SHRA FEW030CB



MET'MAP, la Météo Aéronautique d'un coup d'oeil ! - Copyright ORBIFLY Décembre 2007 - Disclaimer

ORBIFLY MET'MAP TEAM :

Programmation & Développement : Alexandra Zaïnal
Sur une idée originale de : Baudouin d'Aumeries
Assistance à la programmation : Marc-Olivier Méhu
Soutien technique & logistique : Manuel Goepfert

Contact : metmap@orbifly.com




SOURCES & CREDITS :

   NOAA